Time;durP1;ratioP1;P1;durP2;ratioP2;P2;SDS_P1;SDS_P2;PMS_P1;PMS_P2;Temp;Humidity;BMP_temperature;BMP_pressure;BME280_temperature;BME280_humidity;BME280_pressure;Samples;Min_cycle;Max_cycle;Signal;HPM_P1;HPM_P2
2022/03/21 00:01:22;;;;;;;43.83;37.37;;;4.10;99.90;;;;;;5016786;28;20218;-58
2022/03/21 00:03:48;;;;;;;44.40;38.40;;;4.10;99.90;;;;;;5034500;28;20585;-56
2022/03/21 00:06:14;;;;;;;47.83;37.90;;;4.20;99.90;;;;;;5034478;28;20183;-57
2022/03/21 00:08:40;;;;;;;48.17;37.83;;;4.20;99.90;;;;;;5034460;28;20233;-56
2022/03/21 00:11:06;;;;;;;43.80;38.10;;;4.10;99.90;;;;;;5034077;28;20188;-57
2022/03/21 00:13:32;;;;;;;44.80;37.10;;;4.20;99.90;;;;;;5033133;28;20671;-58
2022/03/21 00:15:58;;;;;;;49.67;39.20;;;4.20;99.90;;;;;;5034036;28;20183;-56
2022/03/21 00:18:25;;;;;;;46.87;37.40;;;4.10;99.90;;;;;;5032844;28;20186;-58
2022/03/21 00:20:53;;;;;;;43.60;38.13;;;4.10;99.90;;;;;;5034060;28;20568;-58
2022/03/21 00:23:19;;;;;;;43.73;38.87;;;4.20;99.90;;;;;;5033963;28;20179;-57
2022/03/21 00:25:46;;;;;;;46.43;38.63;;;4.20;99.90;;;;;;5033871;28;20262;-54
2022/03/21 00:28:12;;;;;;;46.53;38.77;;;4.20;99.90;;;;;;5032780;28;20183;-56
2022/03/21 00:30:40;;;;;;;43.17;37.10;;;4.20;99.90;;;;;;5032729;28;20261;-57
2022/03/21 00:33:06;;;;;;;48.37;39.80;;;4.20;99.90;;;;;;5033728;28;20809;-57
2022/03/21 00:35:32;;;;;;;45.90;39.03;;;4.10;99.90;;;;;;5031878;28;20229;-55
2022/03/21 00:37:58;;;;;;;43.63;36.73;;;4.10;99.90;;;;;;5032506;28;20207;-57
2022/03/21 00:40:24;;;;;;;45.63;38.37;;;4.10;99.90;;;;;;5033909;28;20563;-56
2022/03/21 00:42:51;;;;;;;45.73;38.13;;;4.10;99.90;;;;;;5033747;28;20206;-55
2022/03/21 00:45:19;;;;;;;48.10;38.30;;;4.00;99.90;;;;;;5033377;28;20206;-56
2022/03/21 00:47:47;;;;;;;47.60;37.97;;;4.00;99.90;;;;;;5032388;28;20218;-55
2022/03/21 00:50:15;;;;;;;47.30;39.17;;;3.90;99.90;;;;;;5033908;28;20179;-57
2022/03/21 00:53:02;;;;;;;46.97;37.13;;;4.00;99.90;;;;;;5033381;28;20268;-56
2022/03/21 00:55:29;;;;;;;50.43;40.13;;;4.00;99.90;;;;;;5033059;28;20202;-56
2022/03/21 00:57:55;;;;;;;47.70;39.40;;;4.00;99.90;;;;;;5033461;28;20644;-55
2022/03/21 01:00:26;;;;;;;47.83;38.47;;;3.90;99.90;;;;;;5033398;28;20210;-54
2022/03/21 01:02:57;;;;;;;47.33;39.23;;;4.00;99.90;;;;;;5033440;28;20182;-55
2022/03/21 01:05:22;;;;;;;47.10;38.87;;;3.90;99.90;;;;;;5033287;28;20207;-55
2022/03/21 01:07:49;;;;;;;46.27;38.90;;;4.00;99.90;;;;;;5033496;28;20179;-55
2022/03/21 01:10:18;;;;;;;49.57;40.03;;;4.00;99.90;;;;;;5032230;28;20232;-56
2022/03/21 01:12:44;;;;;;;50.73;40.47;;;4.00;99.90;;;;;;5033388;28;20183;-57
2022/03/21 01:15:14;;;;;;;48.57;41.80;;;3.90;99.90;;;;;;5033592;28;20186;-56
2022/03/21 01:17:42;;;;;;;50.00;39.67;;;3.90;99.90;;;;;;5033065;28;20587;-55
2022/03/21 01:20:08;;;;;;;48.40;40.43;;;3.80;99.90;;;;;;5033208;28;20219;-58
2022/03/21 01:22:34;;;;;;;45.53;39.20;;;3.90;99.90;;;;;;5033015;28;20263;-55
2022/03/21 01:25:00;;;;;;;52.73;40.87;;;3.90;99.90;;;;;;5033233;28;20202;-57
2022/03/21 01:27:26;;;;;;;51.57;41.03;;;4.00;99.90;;;;;;5031841;28;20210;-57
2022/03/21 01:29:51;;;;;;;49.77;40.93;;;4.00;99.90;;;;;;5031904;28;20670;-58
2022/03/21 01:32:17;;;;;;;49.17;40.83;;;4.00;99.90;;;;;;5031634;28;20444;-57
2022/03/21 01:34:43;;;;;;;51.30;42.03;;;3.90;99.90;;;;;;5031862;28;20186;-54
2022/03/21 01:37:09;;;;;;;49.33;40.57;;;3.90;99.90;;;;;;5033147;28;20179;-57
2022/03/21 01:39:35;;;;;;;51.77;42.40;;;3.90;99.90;;;;;;5032914;28;20183;-57
2022/03/21 01:42:01;;;;;;;49.07;41.07;;;3.80;99.90;;;;;;5032102;28;20211;-57
2022/03/21 01:44:26;;;;;;;49.77;41.03;;;3.90;99.90;;;;;;5031679;28;20226;-54
2022/03/21 01:46:52;;;;;;;48.63;41.03;;;3.90;99.90;;;;;;5033831;28;20293;-55
2022/03/21 01:49:18;;;;;;;51.10;40.47;;;3.80;99.90;;;;;;5036813;28;20608;-55
2022/03/21 01:51:44;;;;;;;52.07;42.37;;;3.80;99.90;;;;;;5036988;28;20668;-56
2022/03/21 01:56:57;;;;;;;49.77;42.20;;;3.80;99.90;;;;;;5036761;28;20231;-54
2022/03/21 01:59:24;;;;;;;51.27;42.20;;;3.70;99.90;;;;;;5036589;28;20175;-56
2022/03/21 02:01:50;;;;;;;49.97;42.30;;;3.70;99.90;;;;;;5036538;28;20214;-55
2022/03/21 02:04:15;;;;;;;49.73;42.37;;;3.70;99.90;;;;;;5036531;28;20637;-55
2022/03/21 02:06:42;;;;;;;55.63;43.03;;;3.80;99.90;;;;;;5036731;28;20184;-56
2022/03/21 02:09:09;;;;;;;52.70;44.53;;;3.90;99.90;;;;;;5036564;28;20175;-55
2022/03/21 02:11:35;;;;;;;53.30;43.93;;;3.90;99.90;;;;;;5036387;28;20213;-57
2022/03/21 02:14:03;;;;;;;52.70;42.37;;;4.00;99.90;;;;;;5036275;28;20183;-54
2022/03/21 02:16:31;;;;;;;52.73;43.20;;;4.00;99.90;;;;;;5036548;28;20648;-54
2022/03/21 02:19:04;;;;;;;53.97;44.90;;;4.00;99.90;;;;;;5036421;28;20236;-53
2022/03/21 02:21:37;;;;;;;55.03;44.20;;;3.90;99.90;;;;;;5036393;28;20210;-56
2022/03/21 02:24:09;;;;;;;55.23;42.17;;;3.90;99.90;;;;;;5036296;28;20199;-54
2022/03/21 02:26:36;;;;;;;55.50;42.70;;;3.90;99.90;;;;;;5036277;28;20183;-56
2022/03/21 02:29:03;;;;;;;55.50;45.07;;;3.80;99.90;;;;;;5036320;28;20262;-55
2022/03/21 02:31:32;;;;;;;55.23;43.77;;;3.90;99.90;;;;;;5035969;28;20555;-56
2022/03/21 02:33:59;;;;;;;54.13;45.03;;;3.90;99.90;;;;;;5036401;28;20182;-53
2022/03/21 02:36:26;;;;;;;56.60;45.40;;;3.90;99.90;;;;;;5035909;28;20640;-53
2022/03/21 02:38:56;;;;;;;54.37;44.27;;;4.00;99.90;;;;;;5035908;28;20173;-53
2022/03/21 02:41:22;;;;;;;54.43;44.67;;;4.00;99.90;;;;;;5036260;28;20695;-52
2022/03/21 02:43:53;;;;;;;57.17;45.50;;;4.10;99.90;;;;;;5035997;28;20264;-53
2022/03/21 02:46:19;;;;;;;55.60;44.73;;;4.10;99.90;;;;;;5035822;28;20249;-55
2022/03/21 02:48:46;;;;;;;55.70;44.93;;;4.00;99.90;;;;;;5035738;28;20179;-54
2022/03/21 02:51:13;;;;;;;57.00;45.47;;;4.10;99.90;;;;;;5035729;28;20210;-53
2022/03/21 02:53:39;;;;;;;55.67;45.63;;;4.10;99.90;;;;;;5034415;28;20214;-53
2022/03/21 02:56:05;;;;;;;53.27;44.00;;;4.10;99.90;;;;;;5036034;28;20184;-53
2022/03/21 02:58:31;;;;;;;54.27;44.87;;;4.10;99.90;;;;;;5033961;28;20183;-53
2022/03/21 03:01:07;;;;;;;57.73;45.17;;;4.10;99.90;;;;;;5035424;28;20214;-53
2022/03/21 03:03:32;;;;;;;54.30;44.13;;;4.10;99.90;;;;;;5035525;28;20265;-55
2022/03/21 03:05:58;;;;;;;53.80;44.87;;;4.10;99.90;;;;;;5035523;28;20261;-55
2022/03/21 03:08:23;;;;;;;54.97;44.93;;;4.10;99.90;;;;;;5035338;28;20182;-57
2022/03/21 03:10:49;;;;;;;55.17;45.40;;;4.20;99.90;;;;;;5035255;28;20259;-55
2022/03/21 03:13:15;;;;;;;55.67;45.43;;;4.20;99.90;;;;;;5034121;28;20242;-56
2022/03/21 03:15:40;;;;;;;54.80;43.83;;;4.20;99.90;;;;;;5034898;28;20186;-56
2022/03/21 03:18:06;;;;;;;54.10;44.70;;;4.10;99.90;;;;;;5034134;28;20535;-54
2022/03/21 03:20:32;;;;;;;54.43;44.23;;;4.10;99.90;;;;;;5035074;28;20211;-56
2022/03/21 03:23:00;;;;;;;54.07;44.10;;;4.10;99.90;;;;;;5035294;28;20190;-56
2022/03/21 03:25:26;;;;;;;55.37;45.77;;;4.00;99.90;;;;;;5035154;28;20228;-57
2022/03/21 03:27:52;;;;;;;53.33;43.13;;;4.10;99.90;;;;;;5035022;28;20179;-56
2022/03/21 03:30:18;;;;;;;54.63;44.90;;;4.10;99.90;;;;;;5035097;28;20179;-56
2022/03/21 03:32:45;;;;;;;55.03;45.07;;;4.10;99.90;;;;;;5034945;28;20743;-57
2022/03/21 03:35:11;;;;;;;57.00;46.73;;;4.10;99.90;;;;;;5033605;28;20547;-56
2022/03/21 03:37:36;;;;;;;57.43;45.60;;;4.00;99.90;;;;;;5035081;28;20237;-57
2022/03/21 03:40:03;;;;;;;54.67;45.87;;;3.90;99.90;;;;;;5034723;28;20302;-57
2022/03/21 03:42:28;;;;;;;53.53;43.70;;;3.90;99.90;;;;;;5034800;28;20215;-57
2022/03/21 03:44:54;;;;;;;56.67;44.87;;;3.90;99.90;;;;;;5033543;28;20242;-56
2022/03/21 03:47:20;;;;;;;52.43;45.10;;;4.00;99.90;;;;;;5033510;28;20180;-56
2022/03/21 03:49:45;;;;;;;56.33;45.87;;;4.00;99.90;;;;;;5034501;28;20179;-54
2022/03/21 03:52:11;;;;;;;55.13;44.80;;;4.00;99.90;;;;;;5033535;28;20183;-55
2022/03/21 03:54:37;;;;;;;56.37;47.03;;;4.00;99.90;;;;;;5033334;28;20179;-57
2022/03/21 03:57:02;;;;;;;59.23;45.60;;;4.00;99.90;;;;;;5034649;28;20206;-53
2022/03/21 03:59:28;;;;;;;57.30;46.60;;;4.00;99.90;;;;;;5034297;28;20222;-55
2022/03/21 04:01:54;;;;;;;56.20;46.10;;;3.90;99.90;;;;;;5034386;28;20222;-55
2022/03/21 04:04:19;;;;;;;58.53;45.70;;;4.00;99.90;;;;;;5034272;28;20215;-57
2022/03/21 04:06:45;;;;;;;55.53;45.40;;;3.90;99.90;;;;;;5034547;28;20179;-57
2022/03/21 04:09:11;;;;;;;56.23;45.80;;;3.80;99.90;;;;;;5033533;28;20168;-55
2022/03/21 04:11:36;;;;;;;58.97;45.77;;;3.80;99.90;;;;;;5032998;28;20279;-57
2022/03/21 04:14:02;;;;;;;58.33;44.97;;;3.90;99.90;;;;;;5034076;28;20183;-55
2022/03/21 04:16:28;;;;;;;58.17;45.37;;;3.90;99.90;;;;;;5034055;28;20510;-56
2022/03/21 04:18:53;;;;;;;56.33;45.10;;;3.90;99.90;;;;;;5034033;28;20186;-57
2022/03/21 04:21:19;;;;;;;54.23;45.47;;;3.90;99.90;;;;;;5034151;28;20609;-53
2022/03/21 04:23:45;;;;;;;57.67;45.20;;;4.00;99.90;;;;;;5032852;28;20541;-58
2022/03/21 04:26:12;;;;;;;56.87;45.70;;;4.00;99.90;;;;;;5033812;28;20256;-57
2022/03/21 04:28:38;;;;;;;54.83;44.20;;;4.00;99.90;;;;;;5033835;28;20547;-56
2022/03/21 04:31:03;;;;;;;56.63;45.20;;;4.00;99.90;;;;;;5032677;28;20294;-57
2022/03/21 04:33:30;;;;;;;56.13;45.67;;;4.10;99.90;;;;;;5032542;28;20206;-58
2022/03/21 04:35:55;;;;;;;58.53;43.87;;;4.10;99.90;;;;;;5034153;28;20274;-57
2022/03/21 04:38:21;;;;;;;54.03;44.47;;;4.00;99.90;;;;;;5033768;28;20237;-57
2022/03/21 04:40:50;;;;;;;57.13;44.63;;;4.00;99.90;;;;;;5033734;28;20211;-53
2022/03/21 04:43:18;;;;;;;54.77;44.07;;;3.80;99.90;;;;;;5033680;28;20180;-52
2022/03/21 04:45:45;;;;;;;54.50;44.87;;;3.80;99.90;;;;;;5033742;28;20636;-55
2022/03/21 04:48:12;;;;;;;52.13;44.20;;;3.70;99.90;;;;;;5032327;28;20182;-52
2022/03/21 04:50:38;;;;;;;55.37;46.37;;;3.80;99.90;;;;;;5033709;28;20274;-54
2022/03/21 04:53:05;;;;;;;58.10;45.27;;;3.80;99.90;;;;;;5033616;28;20175;-55
2022/03/21 04:55:32;;;;;;;63.10;47.90;;;3.80;99.90;;;;;;5033501;28;20176;-57
2022/03/21 04:57:58;;;;;;;57.27;46.23;;;3.80;99.90;;;;;;5032322;28;20187;-54
2022/03/21 05:00:24;;;;;;;62.27;47.00;;;3.90;99.90;;;;;;5033280;28;20238;-57
2022/03/21 05:02:50;;;;;;;58.60;46.53;;;3.80;99.90;;;;;;5032133;28;20206;-57
2022/03/21 05:05:15;;;;;;;60.80;44.97;;;3.70;99.90;;;;;;5033782;28;20179;-55
2022/03/21 05:07:45;;;;;;;59.30;47.20;;;3.60;99.90;;;;;;5033513;28;20207;-56
2022/03/21 05:10:14;;;;;;;79.33;64.90;;;3.60;99.90;;;;;;5033270;28;20190;-57
2022/03/21 05:12:40;;;;;;;71.30;59.73;;;3.60;99.90;;;;;;5033211;28;20183;-57
2022/03/21 05:15:07;;;;;;;64.43;50.70;;;3.70;99.90;;;;;;5033356;28;20186;-57
2022/03/21 05:17:34;;;;;;;57.30;46.57;;;3.80;99.90;;;;;;5015221;28;20187;-55
2022/03/21 05:20:00;;;;;;;58.03;47.73;;;3.80;99.90;;;;;;5033226;28;20676;-57
2022/03/21 05:22:26;;;;;;;61.57;47.90;;;3.70;99.90;;;;;;5032735;28;20601;-56
2022/03/21 05:36:00;;;;;;;55.80;45.70;;;3.60;99.90;;;;;;5033327;28;20245;-56
2022/03/21 05:38:28;;;;;;;58.33;44.80;;;3.60;99.90;;;;;;5033172;28;20580;-55
2022/03/21 05:40:59;;;;;;;61.43;46.23;;;3.60;99.90;;;;;;5033198;28;20221;-57
2022/03/21 05:43:28;;;;;;;122.57;93.67;;;3.60;99.90;;;;;;5033132;28;20194;-56
2022/03/21 05:45:55;;;;;;;79.50;60.03;;;3.50;99.90;;;;;;5032727;28;20205;-53
2022/03/21 05:51:06;;;;;;;125.87;93.00;;;3.50;99.90;;;;;;5033165;28;20709;-57
2022/03/21 05:53:32;;;;;;;66.77;52.67;;;3.60;99.90;;;;;;5032972;28;20175;-57
2022/03/21 05:56:00;;;;;;;77.97;59.77;;;3.60;99.90;;;;;;5032959;28;20232;-54
2022/03/21 05:58:27;;;;;;;79.00;58.10;;;3.60;99.90;;;;;;5032737;28;20233;-51
2022/03/21 06:00:53;;;;;;;64.63;51.40;;;3.60;99.90;;;;;;5032289;28;20265;-60
2022/03/21 06:03:19;;;;;;;67.23;51.77;;;3.70;99.90;;;;;;5030682;28;20209;-60
2022/03/21 06:05:45;;;;;;;61.13;49.47;;;3.70;99.90;;;;;;5030419;28;20175;-60
2022/03/21 06:08:11;;;;;;;68.97;54.97;;;3.70;99.90;;;;;;5030488;28;20625;-59
2022/03/21 06:10:37;;;;;;;68.93;50.17;;;3.80;99.90;;;;;;5030676;28;20180;-59
2022/03/21 06:13:05;;;;;;;57.60;45.43;;;3.70;99.90;;;;;;5030578;28;20206;-60
2022/03/21 06:15:32;;;;;;;53.40;40.73;;;3.70;99.90;;;;;;5030698;28;20236;-58
2022/03/21 06:17:59;;;;;;;55.93;41.63;;;3.70;99.90;;;;;;5031105;28;20245;-60
2022/03/21 06:20:26;;;;;;;52.27;40.43;;;3.70;99.90;;;;;;5032875;28;20257;-60
2022/03/21 06:22:52;;;;;;;54.33;39.87;;;3.80;99.90;;;;;;5032635;28;20568;-60
2022/03/21 06:25:18;;;;;;;50.63;39.50;;;3.80;99.90;;;;;;5032693;28;20188;-60
2022/03/21 06:27:44;;;;;;;51.47;41.40;;;3.90;99.90;;;;;;5032614;28;20181;-59
2022/03/21 06:30:10;;;;;;;54.07;41.10;;;3.90;99.90;;;;;;5032364;28;20186;-59
2022/03/21 06:32:37;;;;;;;52.57;40.60;;;4.00;99.90;;;;;;5033246;28;20226;-59
2022/03/21 06:35:04;;;;;;;49.97;41.13;;;4.10;99.90;;;;;;5036522;28;20207;-60
2022/03/21 06:37:31;;;;;;;52.60;42.33;;;4.20;99.90;;;;;;5035899;28;20197;-60
2022/03/21 06:39:57;;;;;;;49.43;39.50;;;4.20;99.90;;;;;;5035896;28;20254;-60
2022/03/21 06:42:22;;;;;;;51.43;39.40;;;4.30;99.90;;;;;;5035907;28;20234;-60
2022/03/21 06:44:53;;;;;;;50.17;40.13;;;4.30;99.90;;;;;;5035646;28;20190;-60
2022/03/21 06:47:19;;;;;;;49.13;38.57;;;4.40;99.90;;;;;;5035982;28;20194;-60
2022/03/21 06:49:45;;;;;;;48.10;38.47;;;4.60;99.90;;;;;;5035914;28;20183;-60
2022/03/21 06:52:11;;;;;;;44.33;38.23;;;4.70;99.90;;;;;;5035890;28;20189;-60
2022/03/21 06:54:38;;;;;;;47.40;37.72;;;4.80;99.90;;;;;;5034507;28;20179;-59
2022/03/21 06:57:04;;;;;;;44.50;35.87;;;4.90;99.90;;;;;;5035652;28;20171;-60
2022/03/21 06:59:31;;;;;;;42.80;34.90;;;5.00;99.90;;;;;;5035535;28;20176;-59
2022/03/21 07:01:57;;;;;;;43.60;36.40;;;5.20;99.90;;;;;;5034470;28;20310;-59
2022/03/21 07:04:26;;;;;;;42.23;35.30;;;5.30;99.90;;;;;;5035719;28;20707;-59
2022/03/21 07:06:53;;;;;;;41.07;34.83;;;5.50;99.90;;;;;;5035610;28;20181;-59
2022/03/21 07:09:19;;;;;;;40.75;35.05;;;5.70;99.90;;;;;;5035441;28;20175;-60
2022/03/21 07:11:45;;;;;;;41.22;33.45;;;5.80;99.90;;;;;;5035256;28;20636;-59
2022/03/21 07:14:12;;;;;;;41.90;32.75;;;6.00;99.90;;;;;;5035602;28;20201;-59
2022/03/21 07:16:37;;;;;;;41.22;34.35;;;6.10;99.90;;;;;;5035641;28;20187;-59
2022/03/21 07:19:03;;;;;;;39.30;34.10;;;6.20;99.90;;;;;;5035346;28;20178;-59
2022/03/21 07:21:29;;;;;;;38.25;31.90;;;6.50;99.90;;;;;;5035181;28;20280;-60
2022/03/21 07:23:54;;;;;;;36.45;31.63;;;6.50;99.90;;;;;;5035226;28;20600;-59
2022/03/21 07:26:20;;;;;;;38.33;32.10;;;6.60;99.90;;;;;;5033935;28;20183;-59
2022/03/21 07:28:46;;;;;;;37.30;32.25;;;6.80;99.90;;;;;;5035256;28;20207;-60
2022/03/21 07:31:13;;;;;;;34.95;30.30;;;6.90;99.90;;;;;;5035325;28;20183;-60
2022/03/21 07:33:40;;;;;;;37.38;31.85;;;7.00;99.90;;;;;;5035111;28;20176;-58
2022/03/21 07:36:07;;;;;;;34.88;30.98;;;7.10;99.90;;;;;;5035013;28;20176;-59
2022/03/21 07:38:35;;;;;;;34.65;30.23;;;7.20;99.90;;;;;;5034971;28;20222;-61
2022/03/21 07:41:02;;;;;;;34.67;30.80;;;7.20;99.90;;;;;;5034722;28;20218;-58
2022/03/21 07:43:28;;;;;;;35.47;29.90;;;7.40;99.90;;;;;;5034018;28;20203;-58
2022/03/21 07:48:39;;;;;;;34.67;29.75;;;7.60;99.90;;;;;;5034935;28;20334;-59
2022/03/21 07:51:05;;;;;;;34.92;29.10;;;7.50;99.90;;;;;;5033399;28;20187;-60
2022/03/21 07:53:31;;;;;;;37.00;30.60;;;7.50;99.90;;;;;;5033307;28;20217;-60
2022/03/21 07:55:59;;;;;;;34.58;29.33;;;7.60;99.90;;;;;;5034783;28;20180;-60
2022/03/21 07:58:26;;;;;;;34.08;30.38;;;7.60;99.90;;;;;;5034621;28;20219;-60
2022/03/21 08:00:52;;;;;;;33.28;29.63;;;7.70;99.90;;;;;;5034484;28;20207;-60
2022/03/21 08:03:17;;;;;;;33.80;30.02;;;7.90;99.90;;;;;;5016991;28;20203;-60
2022/03/21 08:05:43;;;;;;;33.53;29.83;;;8.00;99.90;;;;;;5033020;28;20210;-60
2022/03/21 08:08:09;;;;;;;33.58;28.55;;;8.20;99.90;;;;;;5032868;28;20199;-60
2022/03/21 08:10:35;;;;;;;30.38;27.17;;;8.30;99.90;;;;;;5034869;28;20219;-59
2022/03/21 08:13:01;;;;;;;29.25;25.98;;;8.50;99.90;;;;;;5034639;28;20677;-60
2022/03/21 08:15:27;;;;;;;30.83;27.48;;;8.50;99.90;;;;;;5034450;28;20180;-60
2022/03/21 08:17:56;;;;;;;31.08;26.52;;;8.70;99.90;;;;;;5033174;28;20243;-60
2022/03/21 08:20:23;;;;;;;28.92;26.02;;;8.80;99.90;;;;;;5034046;28;20200;-60
2022/03/21 08:22:50;;;;;;;29.52;25.20;;;9.00;99.90;;;;;;5033968;28;20694;-60
2022/03/21 08:25:17;;;;;;;27.45;24.55;;;9.20;99.90;;;;;;5034159;28;20196;-60
2022/03/21 08:27:46;;;;;;;28.50;25.58;;;9.30;99.90;;;;;;5034008;28;20177;-60
2022/03/21 08:30:15;;;;;;;30.50;26.40;;;9.40;99.90;;;;;;5033984;28;20242;-60
2022/03/21 08:32:42;;;;;;;27.23;24.40;;;9.60;99.90;;;;;;5033794;28;20604;-60
2022/03/21 08:35:08;;;;;;;27.90;24.98;;;9.70;99.90;;;;;;5033737;28;20195;-60
2022/03/21 08:37:34;;;;;;;29.35;26.27;;;9.90;99.90;;;;;;5033871;28;20525;-60
2022/03/21 08:39:59;;;;;;;27.35;23.52;;;10.10;99.90;;;;;;5033804;28;20164;-60
2022/03/21 08:42:25;;;;;;;29.85;24.15;;;10.20;99.90;;;;;;5033824;28;20178;-60
2022/03/21 08:44:51;;;;;;;27.42;24.42;;;10.30;99.90;;;;;;5033680;28;20199;-60
2022/03/21 08:47:16;;;;;;;27.73;24.60;;;10.40;99.90;;;;;;5033690;28;20172;-59
2022/03/21 08:49:42;;;;;;;28.98;23.10;;;10.40;99.90;;;;;;5033809;28;20237;-60
2022/03/21 08:52:07;;;;;;;29.10;24.50;;;10.60;99.90;;;;;;5033696;28;20175;-59
2022/03/21 08:54:33;;;;;;;28.80;23.38;;;10.70;99.90;;;;;;5033457;28;20544;-59
2022/03/21 08:56:59;;;;;;;24.88;22.23;;;10.70;99.90;;;;;;5033134;28;20186;-59
2022/03/21 08:59:25;;;;;;;27.08;22.10;;;10.90;99.90;;;;;;5033462;28;20191;-59
2022/03/21 09:01:52;;;;;;;26.35;22.77;;;11.00;99.90;;;;;;5033391;28;20211;-59
2022/03/21 09:04:17;;;;;;;27.98;22.17;;;11.10;99.90;;;;;;5033391;28;20171;-59
2022/03/21 09:06:43;;;;;;;25.95;21.92;;;11.10;99.90;;;;;;5033546;28;20635;-59
2022/03/21 09:09:09;;;;;;;28.60;22.17;;;11.30;99.90;;;;;;5033492;28;20176;-59
2022/03/21 09:11:37;;;;;;;28.63;22.63;;;11.50;99.90;;;;;;5033433;28;20271;-59
2022/03/21 09:14:03;;;;;;;29.10;22.42;;;11.70;99.90;;;;;;5033185;28;20176;-59
2022/03/21 09:16:29;;;;;;;22.73;18.98;;;11.90;99.90;;;;;;5033238;28;20183;-60
2022/03/21 09:18:55;;;;;;;23.25;19.92;;;12.10;99.90;;;;;;5033069;28;20366;-59
2022/03/21 09:21:20;;;;;;;23.38;20.88;;;12.30;99.90;;;;;;5032080;28;20672;-59
2022/03/21 09:23:46;;;;;;;27.02;19.77;;;12.30;99.90;;;;;;5033248;28;20688;-59
2022/03/21 09:26:11;;;;;;;23.70;19.40;;;12.30;99.90;;;;;;5033268;28;20180;-60
2022/03/21 09:28:43;;;;;;;23.98;19.98;;;12.40;99.90;;;;;;5033345;28;20549;-59
2022/03/21 09:31:10;;;;;;;24.08;19.00;;;12.40;99.90;;;;;;5033136;28;20184;-59
2022/03/21 09:33:37;;;;;;;21.45;18.58;;;12.50;99.90;;;;;;5031680;28;20286;-59
2022/03/21 09:36:04;;;;;;;26.10;19.80;;;12.60;99.90;;;;;;5033154;28;20183;-59
2022/03/21 09:38:29;;;;;;;21.88;19.27;;;12.80;99.90;;;;;;5032970;28;20195;-59
2022/03/21 09:40:55;;;;;;;23.95;19.08;;;12.60;99.90;;;;;;5032957;28;20239;-59
2022/03/21 09:43:23;;;;;;;21.77;18.30;;;12.80;99.90;;;;;;5033226;28;20180;-59
2022/03/21 09:45:51;;;;;;;23.48;18.55;;;13.00;99.90;;;;;;5033086;28;20188;-59
2022/03/21 09:48:19;;;;;;;20.98;18.13;;;12.90;99.90;;;;;;5033198;28;20570;-59
2022/03/21 09:50:45;;;;;;;22.35;17.83;;;13.00;99.90;;;;;;5032910;28;20318;-59
2022/03/21 09:53:16;;;;;;;23.58;18.73;;;13.20;99.90;;;;;;5032972;28;20183;-59
2022/03/21 09:55:43;;;;;;;21.35;17.98;;;13.50;99.90;;;;;;5032783;28;20168;-58
2022/03/21 09:58:11;;;;;;;20.20;16.48;;;13.50;99.90;;;;;;5032710;28;20173;-59
2022/03/21 10:00:43;;;;;;;19.23;16.30;;;13.40;99.90;;;;;;5032573;28;20200;-60
2022/03/21 10:03:09;;;;;;;22.40;16.23;;;13.50;99.90;;;;;;5032956;28;20227;-59
2022/03/21 10:05:41;;;;;;;20.75;15.50;;;13.70;99.90;;;;;;5032922;28;20188;-60
2022/03/21 10:08:27;;;;;;;20.52;16.00;;;13.70;99.90;;;;;;5034491;28;20176;-59
2022/03/21 10:11:04;;;;;;;21.75;15.15;;;13.70;99.90;;;;;;5036449;28;20564;-59
2022/03/21 10:13:30;;;;;;;19.63;15.40;;;13.90;99.90;;;;;;5036526;28;20180;-59
2022/03/21 10:16:09;;;;;;;17.50;14.70;;;14.00;99.90;;;;;;5036636;28;20207;-59
2022/03/21 10:18:36;;;;;;;19.15;15.32;;;14.20;99.90;;;;;;5036399;28;20176;-59
2022/03/21 10:21:15;;;;;;;19.40;15.93;;;14.10;99.90;;;;;;5036528;28;20204;-59
2022/03/21 10:23:44;;;;;;;24.38;15.52;;;14.20;99.90;;;;;;5036384;28;20564;-60
2022/03/21 10:26:33;;;;;;;17.00;14.05;;;14.40;99.90;;;;;;5036487;28;20172;-59
2022/03/21 10:29:01;;;;;;;18.55;15.40;;;14.50;99.90;;;;;;5030817;28;20270;-59
2022/03/21 10:31:34;;;;;;;20.58;15.95;;;14.50;99.90;;;;;;5036213;28;20632;-59
2022/03/21 10:34:01;;;;;;;19.20;16.10;;;14.70;99.90;;;;;;5035996;28;20278;-60
2022/03/21 10:36:26;;;;;;;19.92;15.35;;;14.70;99.90;;;;;;5036170;28;20164;-60
2022/03/21 10:39:06;;;;;;;19.13;15.57;;;14.80;99.90;;;;;;5036221;28;20249;-59
2022/03/21 10:41:36;;;;;;;19.88;15.93;;;14.90;99.90;;;;;;5036128;28;20265;-59
2022/03/21 10:44:07;;;;;;;21.13;16.50;;;14.70;99.90;;;;;;5035943;28;20194;-59
2022/03/21 10:46:33;;;;;;;18.35;15.40;;;14.80;99.90;;;;;;5036265;28;20180;-60
2022/03/21 10:49:06;;;;;;;20.30;16.30;;;15.00;99.90;;;;;;5035999;28;20203;-59
2022/03/21 10:51:49;;;;;;;23.20;16.85;;;15.20;99.90;;;;;;5035898;28;20591;-59
2022/03/21 10:54:50;;;;;;;21.92;17.25;;;15.30;99.90;;;;;;5035701;28;20179;-59
2022/03/21 10:57:54;;;;;;;21.15;16.02;;;15.40;99.90;;;;;;5028542;28;20275;-60
2022/03/21 11:00:26;;;;;;;20.95;16.77;;;15.50;99.90;;;;;;5014535;28;20218;-60
2022/03/21 11:03:09;;;;;;;19.90;16.02;;;15.40;99.90;;;;;;5035556;28;20168;-59
2022/03/21 11:05:39;;;;;;;19.00;15.55;;;15.50;99.90;;;;;;5035719;28;20207;-59
2022/03/21 11:08:07;;;;;;;21.48;16.13;;;15.60;99.90;;;;;;5035620;28;20172;-59
2022/03/21 11:10:33;;;;;;;23.05;16.45;;;15.60;99.90;;;;;;5034118;28;20180;-59
2022/03/21 11:13:01;;;;;;;21.00;16.05;;;15.90;99.90;;;;;;5035465;28;20191;-60
2022/03/21 11:15:28;;;;;;;18.02;15.95;;;16.00;99.90;;;;;;5035433;28;20195;-59
2022/03/21 11:17:55;;;;;;;21.45;15.65;;;15.90;99.90;;;;;;5035265;28;20216;-59
2022/03/21 11:20:21;;;;;;;19.10;15.70;;;16.00;99.90;;;;;;5034672;28;20225;-59
2022/03/21 11:22:47;;;;;;;20.80;16.10;;;16.10;99.90;;;;;;5035370;28;20175;-60
2022/03/21 11:25:15;;;;;;;20.20;16.50;;;16.10;99.90;;;;;;5035203;28;20684;-60
2022/03/21 11:28:09;;;;;;;19.45;16.17;;;16.30;99.90;;;;;;5035083;28;20206;-59
2022/03/21 11:30:43;;;;;;;20.13;16.20;;;16.40;99.90;;;;;;5035192;28;20184;-60
2022/03/21 11:33:15;;;;;;;19.30;16.48;;;16.30;99.90;;;;;;5035093;28;20174;-59
2022/03/21 11:35:51;;;;;;;21.05;16.70;;;16.20;99.90;;;;;;5035010;28;20203;-60
2022/03/21 11:38:28;;;;;;;19.45;17.27;;;16.30;99.90;;;;;;5034884;28;20175;-59
2022/03/21 11:41:12;;;;;;;19.85;17.00;;;16.30;99.90;;;;;;5035049;28;20211;-60
2022/03/21 11:43:39;;;;;;;18.73;15.13;;;16.30;99.90;;;;;;5034995;28;20179;-59
2022/03/21 11:46:31;;;;;;;21.23;15.75;;;16.40;99.90;;;;;;5034649;28;20538;-59
2022/03/21 11:48:58;;;;;;;20.90;16.55;;;16.60;99.90;;;;;;5034569;28;20255;-60
2022/03/21 11:51:26;;;;;;;19.80;16.02;;;16.60;99.90;;;;;;5034790;28;20660;-59
2022/03/21 11:53:54;;;;;;;23.00;16.52;;;16.70;99.90;;;;;;5034674;28;20183;-60
2022/03/21 11:56:38;;;;;;;21.50;15.63;;;16.70;99.90;;;;;;5034641;28;20229;-59
2022/03/21 11:59:04;;;;;;;20.92;15.77;;;16.70;99.90;;;;;;5034612;28;20736;-59
2022/03/21 12:01:30;;;;;;;21.58;16.75;;;16.70;99.90;;;;;;5034359;28;20295;-60
2022/03/21 12:04:24;;;;;;;19.48;15.73;;;16.80;99.90;;;;;;5034582;28;20187;-60
2022/03/21 12:07:13;;;;;;;18.77;16.25;;;16.90;99.90;;;;;;5034344;28;20180;-59
2022/03/21 12:09:43;;;;;;;20.33;15.75;;;16.90;99.90;;;;;;5028423;28;20659;-60
2022/03/21 12:12:10;;;;;;;19.98;15.65;;;16.80;99.90;;;;;;5034422;28;20664;-60
2022/03/21 12:15:13;;;;;;;19.83;16.65;;;17.00;99.90;;;;;;5034426;28;20207;-60
2022/03/21 12:17:38;;;;;;;20.90;16.60;;;16.80;99.90;;;;;;5034176;28;20172;-60
2022/03/21 12:20:07;;;;;;;19.00;15.57;;;16.70;99.90;;;;;;5034051;28;20184;-60
2022/03/21 12:22:37;;;;;;;19.77;15.68;;;16.80;99.90;;;;;;5034347;28;20184;-60
2022/03/21 12:25:15;;;;;;;22.80;16.40;;;16.80;99.90;;;;;;5034213;28;20183;-60
2022/03/21 12:27:43;;;;;;;20.88;15.45;;;16.70;99.90;;;;;;5034354;28;20529;-59
2022/03/21 12:30:35;;;;;;;19.25;15.63;;;16.70;99.70;;;;;;5033448;28;20227;-60
2022/03/21 12:33:14;;;;;;;21.00;15.70;;;16.70;99.90;;;;;;5029208;28;20544;-60
2022/03/21 12:35:41;;;;;;;23.38;14.75;;;17.00;99.90;;;;;;5034016;28;20182;-59
2022/03/21 12:38:22;;;;;;;19.08;14.60;;;17.20;99.90;;;;;;5033869;28;20176;-59
2022/03/21 12:40:49;;;;;;;17.88;14.52;;;17.30;99.90;;;;;;5033711;28;20207;-60
2022/03/21 12:43:27;;;;;;;21.63;15.23;;;17.30;99.90;;;;;;5033641;28;20178;-59
2022/03/21 12:46:12;;;;;;;19.65;14.38;;;17.30;99.80;;;;;;5033610;28;20337;-60
2022/03/21 12:48:43;;;;;;;20.30;15.05;;;17.40;99.90;;;;;;5033618;28;20168;-59
2022/03/21 12:51:12;;;;;;;17.17;13.95;;;17.40;99.90;;;;;;5033611;28;20176;-60
2022/03/21 12:53:48;;;;;;;19.15;14.65;;;17.50;99.90;;;;;;5033497;28;20541;-60
2022/03/21 12:56:16;;;;;;;20.13;14.77;;;17.60;99.80;;;;;;5033874;28;20179;-59
2022/03/21 12:58:47;;;;;;;18.88;13.98;;;17.70;99.30;;;;;;5033567;28;20164;-59